createdAt,value
2022-08-17T00:00:43.125Z,10.76
2022-08-17T00:03:12.673Z,10.82
2022-08-17T00:05:53.475Z,10.61
2022-08-17T00:08:26.194Z,10.77
2022-08-17T00:10:59.885Z,10.69
2022-08-17T00:13:40.801Z,10.85
2022-08-17T00:16:14.949Z,10.55
2022-08-17T00:19:06.565Z,10.74
2022-08-17T00:21:44.679Z,10.83
2022-08-17T00:24:23.110Z,10.88
2022-08-17T00:26:51.754Z,10.82
2022-08-17T00:29:20.477Z,10.97
2022-08-17T00:31:50.041Z,10.87
2022-08-17T00:34:19.696Z,10.92
2022-08-17T00:36:48.305Z,11.05
2022-08-17T00:39:17.330Z,10.93
2022-08-17T00:41:46.100Z,10.94
2022-08-17T00:44:15.139Z,10.97
2022-08-17T00:46:44.835Z,11.21
2022-08-17T00:49:20.187Z,11.21
2022-08-17T00:51:53.798Z,11.18
2022-08-17T00:54:40.985Z,11.13
2022-08-17T00:57:40.415Z,11.24
2022-08-17T01:00:22.148Z,11.36
2022-08-17T01:02:50.940Z,11.25
2022-08-17T01:05:22.308Z,11.45
2022-08-17T01:07:54.179Z,11.32
2022-08-17T01:10:58.657Z,11.27
2022-08-17T01:13:18.074Z,11.28
2022-08-17T01:15:58.540Z,11.42
2022-08-17T01:18:28.229Z,11.52
2022-08-17T01:21:03.303Z,11.49
2022-08-17T01:23:32.162Z,11.47
2022-08-17T01:26:02.958Z,11.63
2022-08-17T01:28:54.686Z,11.74
2022-08-17T01:31:23.502Z,10.88
2022-08-17T01:33:53.049Z,12.51
2022-08-17T01:36:23.227Z,13.92
2022-08-17T01:38:54.046Z,15.10
2022-08-17T01:41:23.549Z,16.13
2022-08-17T01:43:59.796Z,16.79
2022-08-17T01:46:32.722Z,17.25
2022-08-17T01:49:02.073Z,17.89
2022-08-17T01:51:33.312Z,18.16
2022-08-17T01:54:09.398Z,18.47
2022-08-17T01:56:41.254Z,18.68
2022-08-17T01:59:11.855Z,18.79
2022-08-17T02:01:40.966Z,18.91
2022-08-17T02:04:09.814Z,19.26
2022-08-17T02:06:53.764Z,19.63
2022-08-17T02:09:29.923Z,19.81
2022-08-17T02:12:04.831Z,19.74
2022-08-17T02:14:52.487Z,19.18
2022-08-17T02:17:21.652Z,18.85
2022-08-17T02:19:50.246Z,18.86
2022-08-17T02:22:19.105Z,18.86
2022-08-17T02:25:01.044Z,19.02
2022-08-17T02:27:30.706Z,18.82
2022-08-17T02:29:59.394Z,18.53
2022-08-17T02:32:28.764Z,18.65
2022-08-17T02:34:58.867Z,18.70
2022-08-17T02:37:29.153Z,18.82
2022-08-17T02:39:59.522Z,18.97
2022-08-17T02:42:39.003Z,19.09
2022-08-17T02:45:14.564Z,19.03
2022-08-17T02:47:44.878Z,18.95
2022-08-17T02:50:16.059Z,19.16
2022-08-17T02:52:47.508Z,18.99
2022-08-17T02:55:33.337Z,18.86
2022-08-17T02:58:02.748Z,18.93
2022-08-17T03:00:35.050Z,18.58
2022-08-17T03:03:06.512Z,18.57
2022-08-17T03:05:37.486Z,18.66
2022-08-17T03:08:07.605Z,18.46
2022-08-17T03:10:42.301Z,18.20
2022-08-17T03:13:14.016Z,18.12
2022-08-17T03:15:48.573Z,18.09
2022-08-17T03:18:25.435Z,17.89
2022-08-17T03:21:00.977Z,17.53
2022-08-17T03:23:30.424Z,17.74
2022-08-17T03:25:59.556Z,17.64
2022-08-17T03:28:29.005Z,18.00
2022-08-17T03:30:57.676Z,17.91
2022-08-17T03:33:26.229Z,18.04
2022-08-17T03:35:54.885Z,17.83
2022-08-17T03:38:23.580Z,17.75
2022-08-17T03:40:57.676Z,18.00
2022-08-17T03:43:33.808Z,17.52
2022-08-17T03:46:34.594Z,17.56
2022-08-17T03:49:27.789Z,17.61
2022-08-17T03:52:16.265Z,17.82
2022-08-17T03:55:04.295Z,18.02
2022-08-17T03:57:33.507Z,18.27
2022-08-17T04:00:02.055Z,18.03
2022-08-17T04:02:40.155Z,17.83
2022-08-17T04:05:09.138Z,17.85
2022-08-17T04:07:37.550Z,18.11
2022-08-17T04:10:06.398Z,18.01
2022-08-17T04:12:50.248Z,17.82
2022-08-17T04:15:19.285Z,17.79
2022-08-17T04:17:48.361Z,17.62
2022-08-17T04:20:18.624Z,17.55
2022-08-17T04:23:17.955Z,17.49
2022-08-17T04:25:49.669Z,17.14
2022-08-17T04:28:19.947Z,17.33
2022-08-17T04:30:48.831Z,17.15
2022-08-17T04:33:27.454Z,17.56
2022-08-17T04:36:02.013Z,17.51
2022-08-17T04:38:34.763Z,17.44
2022-08-17T04:41:22.832Z,17.30
2022-08-17T04:43:59.331Z,17.10
2022-08-17T04:46:34.400Z,16.41
2022-08-17T04:49:06.874Z,16.64
2022-08-17T04:51:54.524Z,16.40
2022-08-17T04:54:25.516Z,16.87
2022-08-17T04:56:54.107Z,17.12
2022-08-17T04:59:26.929Z,17.36
2022-08-17T05:01:55.373Z,17.59
2022-08-17T05:04:34.312Z,17.73
2022-08-17T05:07:05.344Z,17.39
2022-08-17T05:09:33.826Z,17.07
2022-08-17T05:12:04.021Z,16.83
2022-08-17T05:14:33.627Z,16.70
2022-08-17T05:17:07.177Z,16.51
2022-08-17T05:19:39.815Z,16.74
2022-08-17T05:22:08.487Z,17.34
2022-08-17T05:24:40.715Z,17.81
2022-08-17T05:27:18.844Z,17.73
2022-08-17T05:29:47.869Z,17.32
2022-08-17T05:32:39.055Z,17.91
2022-08-17T05:35:06.544Z,17.52
2022-08-17T05:37:38.460Z,17.24
2022-08-17T05:40:07.722Z,17.04
2022-08-17T05:42:36.236Z,16.85
2022-08-17T05:45:05.746Z,16.65
2022-08-17T05:47:34.607Z,17.14
2022-08-17T05:50:09.924Z,17.34
2022-08-17T05:52:51.101Z,17.10
2022-08-17T05:55:40.666Z,17.10
2022-08-17T05:58:25.803Z,17.11
2022-08-17T06:01:00.821Z,16.88
2022-08-17T06:03:54.648Z,16.77
2022-08-17T06:06:53.206Z,17.00
2022-08-17T06:09:37.060Z,16.91
2022-08-17T06:12:28.365Z,16.90
2022-08-17T06:15:28.316Z,16.68
2022-08-17T06:18:01.511Z,16.44
2022-08-17T06:20:49.838Z,16.70
2022-08-17T06:23:42.473Z,16.39
2022-08-17T06:26:34.536Z,16.41
2022-08-17T06:29:18.765Z,16.58
2022-08-17T06:31:47.617Z,16.89
2022-08-17T06:34:16.420Z,17.56
2022-08-17T06:36:50.924Z,18.08
2022-08-17T06:39:59.008Z,18.03
2022-08-17T06:42:55.077Z,17.68
2022-08-17T06:45:49.767Z,18.03
2022-08-17T06:48:25.795Z,18.27
2022-08-17T06:51:00.735Z,18.03
2022-08-17T06:53:47.031Z,17.74
2022-08-17T06:56:53.511Z,18.03
2022-08-17T06:59:20.742Z,18.49
2022-08-17T07:01:53.020Z,18.67
2022-08-17T07:04:26.929Z,18.91
2022-08-17T07:07:27.696Z,18.68
2022-08-17T07:09:59.457Z,18.53
2022-08-17T07:12:38.325Z,18.20
2022-08-17T07:15:24.207Z,17.97
2022-08-17T07:17:52.821Z,17.90
2022-08-17T07:20:23.356Z,17.91
2022-08-17T07:23:30.988Z,18.07
2022-08-17T07:26:10.456Z,17.72
2022-08-17T07:28:39.776Z,17.78
2022-08-17T07:31:09.394Z,17.44
2022-08-17T07:33:40.014Z,17.55
2022-08-17T07:36:29.777Z,17.18
2022-08-17T07:38:59.093Z,17.28
2022-08-17T07:41:53.168Z,17.24
2022-08-17T07:44:18.333Z,17.23
2022-08-17T07:47:12.937Z,17.25
2022-08-17T07:49:48.765Z,17.43
2022-08-17T07:52:50.553Z,17.29
2022-08-17T07:55:31.163Z,17.06
2022-08-17T07:58:00.910Z,16.91
2022-08-17T08:00:32.020Z,16.94
2022-08-17T08:03:18.095Z,16.87
2022-08-17T08:05:54.200Z,16.92
2022-08-17T08:08:28.729Z,16.99
2022-08-17T08:11:07.022Z,17.10
2022-08-17T08:13:43.137Z,17.55
2022-08-17T08:16:30.215Z,17.93
2022-08-17T08:19:01.945Z,17.76
2022-08-17T08:21:50.628Z,17.86
2022-08-17T08:24:44.230Z,17.94
2022-08-17T08:27:29.065Z,17.67
2022-08-17T08:30:21.812Z,17.65
2022-08-17T08:33:18.165Z,17.72
2022-08-17T08:36:56.627Z,17.39
2022-08-17T08:39:30.652Z,17.49
2022-08-17T08:42:24.008Z,17.76
2022-08-17T08:45:04.772Z,17.96
2022-08-17T08:47:54.748Z,17.68
2022-08-17T08:51:08.611Z,17.41
2022-08-17T08:53:53.558Z,17.18
2022-08-17T08:56:25.045Z,17.05
2022-08-17T08:59:04.180Z,16.90
2022-08-17T09:01:50.282Z,16.99
2022-08-17T09:05:10.634Z,17.03
2022-08-17T09:07:52.641Z,16.90
2022-08-17T09:10:28.526Z,16.85
2022-08-17T09:13:39.985Z,16.62
2022-08-17T09:16:23.951Z,16.51
2022-08-17T09:19:00.954Z,16.97
2022-08-17T09:21:47.946Z,17.17
2022-08-17T09:24:36.787Z,17.15
2022-08-17T09:27:14.135Z,17.39
2022-08-17T09:29:58.620Z,17.50
2022-08-17T09:33:05.457Z,17.64
2022-08-17T09:35:40.078Z,17.47
2022-08-17T09:38:20.796Z,17.84
2022-08-17T09:42:02.779Z,18.18
2022-08-17T09:45:09.226Z,18.32
2022-08-17T09:48:18.059Z,18.11
2022-08-17T09:51:07.623Z,17.68
2022-08-17T09:53:40.255Z,17.90
2022-08-17T09:56:26.509Z,18.23
2022-08-17T09:59:11.867Z,18.44
2022-08-17T10:01:58.189Z,18.75
2022-08-17T10:04:30.446Z,18.32
2022-08-17T10:07:05.151Z,18.39
2022-08-17T10:09:33.725Z,18.29
2022-08-17T10:12:29.961Z,18.15
2022-08-17T10:15:26.606Z,17.81
2022-08-17T10:18:41.567Z,17.50
2022-08-17T10:21:32.740Z,17.28
2022-08-17T10:25:20.879Z,16.45
2022-08-17T10:27:52.944Z,16.80
2022-08-17T10:30:27.974Z,16.99
2022-08-17T10:33:25.902Z,16.91
2022-08-17T10:36:20.442Z,16.80
2022-08-17T10:38:59.151Z,16.70
2022-08-17T10:41:33.888Z,16.84
2022-08-17T10:44:40.232Z,16.66
2022-08-17T10:47:19.115Z,16.81
2022-08-17T10:49:54.546Z,16.83
2022-08-17T10:52:31.119Z,16.82
2022-08-17T10:55:02.485Z,16.86
2022-08-17T10:57:32.367Z,16.83
2022-08-17T11:00:29.152Z,16.78
2022-08-17T11:02:59.211Z,16.70
2022-08-17T11:05:46.294Z,16.83
2022-08-17T11:08:58.266Z,16.82
2022-08-17T11:11:36.596Z,16.53
2022-08-17T11:14:24.682Z,16.62
2022-08-17T11:17:24.988Z,16.64
2022-08-17T11:20:11.512Z,16.55
2022-08-17T11:23:18.956Z,16.44
2022-08-17T11:25:57.778Z,16.10
2022-08-17T11:28:34.989Z,16.36
2022-08-17T11:31:38.680Z,16.20
2022-08-17T11:34:19.956Z,16.12
2022-08-17T11:37:21.617Z,16.10
2022-08-17T11:40:07.695Z,15.96
2022-08-17T11:42:48.223Z,15.83
2022-08-17T11:45:45.818Z,15.74
2022-08-17T11:48:51.647Z,15.80
2022-08-17T11:51:36.305Z,15.66
2022-08-17T11:54:34.575Z,15.40
2022-08-17T11:57:28.021Z,15.47
2022-08-17T11:59:58.596Z,15.32
2022-08-17T12:02:33.690Z,15.43
2022-08-17T12:05:03.319Z,15.41
2022-08-17T12:07:35.436Z,15.11
2022-08-17T12:10:06.818Z,14.99
2022-08-17T12:12:36.581Z,14.63
2022-08-17T12:15:11.148Z,14.08
2022-08-17T12:17:43.008Z,14.03
2022-08-17T12:20:29.314Z,13.41
2022-08-17T12:23:05.552Z,13.31
2022-08-17T12:25:46.145Z,13.18
2022-08-17T12:28:31.290Z,13.15
2022-08-17T12:31:01.813Z,13.17
2022-08-17T12:33:30.808Z,13.23
2022-08-17T12:36:09.712Z,13.18
2022-08-17T12:38:39.416Z,12.98
2022-08-17T12:41:27.972Z,13.10
2022-08-17T12:44:02.858Z,13.03
2022-08-17T12:46:46.673Z,12.79
2022-08-17T12:49:24.618Z,12.74
2022-08-17T12:52:08.383Z,12.81
2022-08-17T12:54:57.942Z,13.03
2022-08-17T12:57:49.758Z,13.15
2022-08-17T13:00:28.201Z,13.18
2022-08-17T13:03:13.605Z,13.27
2022-08-17T13:05:54.982Z,13.50
2022-08-17T13:08:32.907Z,13.65
2022-08-17T13:11:03.206Z,13.51
2022-08-17T13:13:35.498Z,13.62
2022-08-17T13:16:17.359Z,13.55
2022-08-17T13:18:51.123Z,13.40
2022-08-17T13:21:19.777Z,13.48
2022-08-17T13:24:06.732Z,13.42
2022-08-17T13:26:45.046Z,13.29
2022-08-17T13:29:37.107Z,13.08
2022-08-17T13:32:07.939Z,13.08
2022-08-17T13:35:15.377Z,12.89
2022-08-17T13:37:42.671Z,12.67
2022-08-17T13:40:11.423Z,12.94
2022-08-17T13:42:53.554Z,12.87
2022-08-17T13:45:38.857Z,12.76
2022-08-17T13:48:33.248Z,12.58
2022-08-17T13:51:04.774Z,12.64
2022-08-17T13:53:40.214Z,12.52
2022-08-17T13:56:33.363Z,12.45
2022-08-17T13:59:05.900Z,12.37
2022-08-17T14:01:34.290Z,12.28
2022-08-17T14:04:07.079Z,12.21
2022-08-17T14:06:52.940Z,12.00
2022-08-17T14:09:37.040Z,12.20
2022-08-17T14:12:11.179Z,12.19
2022-08-17T14:14:41.542Z,12.22
2022-08-17T14:17:11.386Z,11.96
2022-08-17T14:19:40.345Z,12.08
2022-08-17T14:22:15.663Z,12.11
2022-08-17T14:24:45.093Z,11.86
2022-08-17T14:27:18.599Z,12.12
2022-08-17T14:29:47.764Z,12.18
2022-08-17T14:32:29.669Z,12.10
2022-08-17T14:34:58.960Z,12.07
2022-08-17T14:37:29.642Z,11.96
2022-08-17T14:40:00.923Z,11.97
2022-08-17T14:42:33.395Z,11.91
2022-08-17T14:45:06.923Z,11.82
2022-08-17T14:47:55.585Z,11.72
2022-08-17T14:50:24.440Z,11.44
2022-08-17T14:52:53.067Z,11.56
2022-08-17T14:55:21.939Z,11.54
2022-08-17T14:57:50.617Z,11.60
2022-08-17T15:00:19.552Z,11.29
2022-08-17T15:02:58.741Z,11.54
2022-08-17T15:05:34.218Z,11.40
2022-08-17T15:08:06.142Z,11.46
2022-08-17T15:10:35.020Z,11.39
2022-08-17T15:13:04.061Z,11.39
2022-08-17T15:15:32.926Z,11.29
2022-08-17T15:18:01.917Z,11.18
2022-08-17T15:20:30.992Z,10.96
2022-08-17T15:23:00.159Z,11.32
2022-08-17T15:25:32.380Z,11.32
2022-08-17T15:28:01.986Z,11.23
2022-08-17T15:30:32.023Z,11.24
2022-08-17T15:33:01.766Z,11.23
2022-08-17T15:35:32.827Z,11.12
2022-08-17T15:38:11.130Z,11.20
2022-08-17T15:40:49.198Z,11.11
2022-08-17T15:43:27.286Z,10.98
2022-08-17T15:46:03.998Z,10.92
2022-08-17T15:48:43.605Z,10.82
2022-08-17T15:51:16.583Z,10.86
2022-08-17T15:53:49.264Z,11.08
2022-08-17T15:56:18.235Z,10.96
2022-08-17T15:58:48.403Z,10.95
2022-08-17T16:01:44.636Z,10.93
2022-08-17T16:04:27.000Z,10.99
2022-08-17T16:07:00.629Z,10.55
2022-08-17T16:09:29.146Z,10.97
2022-08-17T16:11:57.813Z,10.90
2022-08-17T16:14:34.910Z,10.54
2022-08-17T16:17:05.261Z,10.62
2022-08-17T16:19:54.210Z,10.62
2022-08-17T16:22:41.700Z,10.54
2022-08-17T16:25:20.427Z,10.75
2022-08-17T16:27:53.910Z,10.54
2022-08-17T16:30:25.279Z,10.88
2022-08-17T16:32:55.338Z,10.68
2022-08-17T16:35:27.560Z,10.70
2022-08-17T16:37:58.995Z,10.67
2022-08-17T16:40:29.594Z,10.56
2022-08-17T16:43:00.085Z,10.43
2022-08-17T16:45:37.080Z,10.66
2022-08-17T16:48:05.924Z,10.50
2022-08-17T16:50:35.336Z,10.47
2022-08-17T16:53:19.150Z,10.61
2022-08-17T16:55:54.316Z,10.42
2022-08-17T16:58:23.344Z,10.41
2022-08-17T17:00:52.200Z,10.35
2022-08-17T17:03:25.478Z,10.40
2022-08-17T17:06:09.299Z,10.22
2022-08-17T17:08:56.337Z,10.43
2022-08-17T17:11:44.922Z,10.37
2022-08-17T17:14:43.817Z,10.02
2022-08-17T17:17:18.177Z,10.23
2022-08-17T17:20:03.878Z,10.06
2022-08-17T17:22:42.105Z,10.11
2022-08-17T17:25:37.743Z,10.06
2022-08-17T17:28:28.593Z,9.72
2022-08-17T17:31:18.474Z,10.24
2022-08-17T17:33:53.914Z,10.02
2022-08-17T17:36:35.677Z,10.18
2022-08-17T17:39:14.048Z,10.06
2022-08-17T17:42:15.243Z,10.00
2022-08-17T17:45:09.995Z,9.62
2022-08-17T17:47:39.056Z,9.77
2022-08-17T17:50:09.078Z,9.94
2022-08-17T17:52:53.054Z,9.94
2022-08-17T17:55:27.707Z,9.92
2022-08-17T17:58:10.234Z,9.92
2022-08-17T18:00:48.637Z,9.70
2022-08-17T18:03:34.075Z,9.32
2022-08-17T18:06:20.248Z,9.88
2022-08-17T18:09:03.956Z,9.44
2022-08-17T18:12:03.402Z,9.81
2022-08-17T18:14:52.374Z,9.71
2022-08-17T18:17:21.103Z,9.76
2022-08-17T18:19:49.578Z,9.62
2022-08-17T18:22:22.214Z,9.46
2022-08-17T18:24:56.975Z,9.59
2022-08-17T18:27:38.736Z,9.62
2022-08-17T18:30:13.377Z,9.70
2022-08-17T18:32:45.282Z,9.59
2022-08-17T18:35:16.470Z,9.68
2022-08-17T18:37:53.437Z,9.29
2022-08-17T18:40:22.237Z,9.61
2022-08-17T18:43:25.352Z,9.58
2022-08-17T18:45:56.979Z,9.50
2022-08-17T18:49:00.448Z,9.38
2022-08-17T18:51:42.195Z,9.06
2022-08-17T18:54:25.774Z,9.29
2022-08-17T18:57:02.735Z,9.31
2022-08-17T18:59:49.996Z,9.39
2022-08-17T19:02:36.078Z,9.33
2022-08-17T19:05:28.915Z,9.18
2022-08-17T19:08:18.176Z,9.24
2022-08-17T19:10:50.976Z,9.33
2022-08-17T19:13:29.454Z,9.30
2022-08-17T19:16:11.610Z,9.31
2022-08-17T19:19:15.183Z,9.28
2022-08-17T19:21:55.429Z,9.16
2022-08-17T19:24:31.393Z,9.25
2022-08-17T19:27:22.186Z,9.06
2022-08-17T19:30:07.005Z,9.18
2022-08-17T19:32:37.062Z,8.95
2022-08-17T19:35:10.449Z,9.09
2022-08-17T19:37:54.555Z,8.87
2022-08-17T19:40:53.673Z,9.10
2022-08-17T19:43:52.048Z,8.92
2022-08-17T19:46:36.207Z,9.04
2022-08-17T19:49:40.950Z,9.03
2022-08-17T19:52:35.257Z,8.95
2022-08-17T19:55:14.758Z,8.96
2022-08-17T19:58:04.980Z,8.74
2022-08-17T20:00:40.844Z,8.95
2022-08-17T20:03:17.126Z,8.77
2022-08-17T20:06:12.123Z,8.83
2022-08-17T20:08:57.891Z,8.60
2022-08-17T20:11:33.663Z,8.40
2022-08-17T20:14:07.897Z,8.79
2022-08-17T20:16:36.733Z,8.86
2022-08-17T20:19:18.017Z,8.85
2022-08-17T20:22:10.433Z,8.76
2022-08-17T20:24:55.856Z,8.85
2022-08-17T20:27:31.630Z,8.90
2022-08-17T20:30:13.164Z,8.85
2022-08-17T20:32:58.182Z,8.82
2022-08-17T20:35:33.784Z,8.86
2022-08-17T20:38:07.295Z,8.74
2022-08-17T20:41:04.445Z,8.83
2022-08-17T20:43:36.236Z,8.88
2022-08-17T20:46:16.794Z,8.85
2022-08-17T20:48:51.388Z,8.87
2022-08-17T20:52:04.322Z,8.80
2022-08-17T20:54:52.438Z,8.85
2022-08-17T20:57:49.712Z,8.84
2022-08-17T21:00:30.568Z,8.81
2022-08-17T21:03:26.115Z,8.82
2022-08-17T21:06:11.104Z,8.84
2022-08-17T21:08:54.806Z,8.84
2022-08-17T21:12:03.104Z,8.85
2022-08-17T21:14:32.493Z,8.61
2022-08-17T21:17:38.825Z,8.80
2022-08-17T21:20:26.162Z,8.81
2022-08-17T21:23:12.948Z,8.81
2022-08-17T21:25:44.269Z,8.77
2022-08-17T21:29:01.686Z,8.42
2022-08-17T21:32:00.964Z,8.68
2022-08-17T21:34:44.234Z,8.68
2022-08-17T21:37:24.954Z,8.66
2022-08-17T21:40:01.743Z,8.61
2022-08-17T21:42:35.038Z,8.62
2022-08-17T21:45:19.324Z,8.52
2022-08-17T21:48:13.846Z,8.57
2022-08-17T21:50:46.335Z,8.45
2022-08-17T21:53:32.894Z,8.45
2022-08-17T21:56:02.031Z,8.49
2022-08-17T21:58:40.974Z,8.54
2022-08-17T22:01:20.040Z,8.39
2022-08-17T22:03:59.603Z,8.46
2022-08-17T22:06:39.009Z,8.29
2022-08-17T22:09:11.064Z,8.46
2022-08-17T22:11:56.823Z,8.29
2022-08-17T22:14:52.960Z,8.09
2022-08-17T22:17:30.469Z,8.30
2022-08-17T22:20:10.074Z,8.25
2022-08-17T22:23:19.259Z,7.92
2022-08-17T22:26:09.532Z,8.34
2022-08-17T22:28:50.983Z,8.20
2022-08-17T22:31:26.064Z,8.27
2022-08-17T22:34:01.156Z,8.28
2022-08-17T22:36:30.215Z,8.24
2022-08-17T22:39:11.144Z,8.23
2022-08-17T22:41:54.824Z,7.85
2022-08-17T22:44:27.961Z,8.01
2022-08-17T22:47:05.415Z,8.04
2022-08-17T22:50:01.535Z,8.08
2022-08-17T22:52:57.318Z,8.10
2022-08-17T22:55:44.525Z,7.96
2022-08-17T22:58:34.427Z,7.91
2022-08-17T23:01:29.084Z,7.95
2022-08-17T23:04:02.041Z,7.78
2022-08-17T23:06:34.555Z,7.95
2022-08-17T23:09:05.238Z,7.79
2022-08-17T23:11:49.089Z,7.94
2022-08-17T23:14:23.036Z,7.93
2022-08-17T23:16:52.015Z,7.53
2022-08-17T23:19:22.542Z,7.84
2022-08-17T23:21:54.506Z,7.91
2022-08-17T23:24:26.812Z,7.88
2022-08-17T23:26:57.907Z,7.87
2022-08-17T23:29:29.972Z,7.78
2022-08-17T23:32:02.089Z,7.88
2022-08-17T23:34:31.270Z,7.92
2022-08-17T23:37:03.053Z,7.87
2022-08-17T23:39:32.155Z,7.82
2022-08-17T23:42:05.638Z,7.95
2022-08-17T23:44:34.886Z,7.80
2022-08-17T23:47:05.609Z,7.77
2022-08-17T23:49:35.038Z,7.78
2022-08-17T23:52:08.254Z,7.75
2022-08-17T23:54:44.096Z,7.86
2022-08-17T23:57:16.061Z,7.82
2022-08-17T23:59:45.204Z,7.99
